Time;durP1;ratioP1;P1;durP2;ratioP2;P2;SDS_P1;SDS_P2;PMS_P1;PMS_P2;Temp;Humidity;BMP_temperature;BMP_pressure;BME280_temperature;BME280_humidity;BME280_pressure;Samples;Min_cycle;Max_cycle;Signal;HPM_P1;HPM_P2
2022/08/10 00:01:39;;;;;;;4.22;2.38;;;16.40;75.30;;;;;;5083030;28;20021;-90
2022/08/10 00:04:05;;;;;;;4.72;2.10;;;16.30;74.80;;;;;;5090823;28;20530;-91
2022/08/10 00:06:31;;;;;;;3.78;2.40;;;16.20;75.90;;;;;;5074754;28;20020;-90
2022/08/10 00:08:57;;;;;;;3.05;2.20;;;16.10;75.70;;;;;;5095709;28;20046;-90
2022/08/10 00:11:24;;;;;;;3.22;2.30;;;16.00;76.00;;;;;;5080183;28;20055;-90
2022/08/10 00:13:50;;;;;;;7.47;2.50;;;15.90;76.40;;;;;;5084514;28;20083;-90
2022/08/10 00:16:17;;;;;;;5.75;2.65;;;15.80;76.30;;;;;;5097064;28;20056;-89
2022/08/10 00:18:42;;;;;;;2.70;2.08;;;15.70;77.60;;;;;;5084371;28;20063;-90
2022/08/10 00:21:08;;;;;;;2.78;2.28;;;15.70;77.60;;;;;;5083256;28;20052;-90
2022/08/10 00:23:36;;;;;;;2.90;2.53;;;15.60;77.40;;;;;;5090422;28;20039;-90
2022/08/10 00:26:03;;;;;;;4.55;2.92;;;15.60;77.60;;;;;;5088350;28;20020;-90
2022/08/10 00:28:29;;;;;;;6.00;2.92;;;15.50;78.30;;;;;;5088478;28;20032;-90
2022/08/10 00:30:55;;;;;;;2.85;2.65;;;15.50;78.50;;;;;;5089526;28;20020;-90
2022/08/10 00:33:20;;;;;;;3.55;2.60;;;15.40;80.70;;;;;;5082183;28;20034;-90
2022/08/10 00:35:47;;;;;;;3.10;2.30;;;15.40;82.70;;;;;;5089680;28;20020;-89
2022/08/10 00:38:13;;;;;;;4.40;2.65;;;15.40;83.40;;;;;;5092034;28;20093;-90
2022/08/10 00:40:38;;;;;;;3.38;2.60;;;15.40;83.60;;;;;;5079534;28;20032;-90
2022/08/10 00:43:06;;;;;;;6.38;2.40;;;15.30;83.50;;;;;;5071447;28;20408;-90
2022/08/10 00:45:32;;;;;;;2.38;2.17;;;15.30;84.40;;;;;;5064257;28;20024;-90
2022/08/10 00:47:58;;;;;;;3.42;2.03;;;15.30;84.30;;;;;;5088962;28;20825;-90
2022/08/10 00:50:24;;;;;;;3.20;2.60;;;15.20;84.30;;;;;;5063354;28;20032;-88
2022/08/10 00:52:50;;;;;;;10.60;2.72;;;15.20;85.10;;;;;;5085020;28;20500;-90
2022/08/10 00:55:16;;;;;;;4.05;2.53;;;15.10;85.70;;;;;;5080355;28;20079;-90
2022/08/10 00:57:42;;;;;;;5.53;2.45;;;15.10;86.50;;;;;;5092191;28;20035;-90
2022/08/10 01:00:08;;;;;;;4.68;2.70;;;15.00;87.40;;;;;;5072699;28;20040;-90
2022/08/10 01:02:34;;;;;;;3.33;2.47;;;14.90;87.80;;;;;;5085803;28;20024;-90
2022/08/10 01:05:07;;;;;;;3.40;2.38;;;14.80;86.50;;;;;;5078400;28;20037;-88
2022/08/10 01:07:50;;;;;;;3.58;2.38;;;14.60;85.40;;;;;;5071616;28;20017;-89
2022/08/10 01:10:47;;;;;;;4.05;2.47;;;14.50;86.40;;;;;;5085255;28;20031;-90
2022/08/10 01:13:28;;;;;;;4.00;2.53;;;14.30;86.30;;;;;;5004357;28;20038;-90
2022/08/10 01:16:35;;;;;;;2.67;2.33;;;14.20;86.30;;;;;;5084829;28;20103;-90
2022/08/10 01:19:29;;;;;;;3.58;2.30;;;14.10;86.70;;;;;;5079751;28;20037;-91
2022/08/10 01:22:18;;;;;;;2.80;2.33;;;14.00;87.30;;;;;;5085311;28;20368;-90
2022/08/10 01:25:00;;;;;;;3.38;2.50;;;14.00;87.90;;;;;;5053856;28;20052;-90
2022/08/10 01:27:44;;;;;;;3.75;2.58;;;14.00;87.80;;;;;;5084533;28;20033;-89
2022/08/10 01:30:12;;;;;;;3.42;2.55;;;14.00;89.50;;;;;;5086620;28;20040;-89
2022/08/10 01:32:46;;;;;;;3.50;2.45;;;13.90;89.10;;;;;;5086428;28;20039;-89
2022/08/10 01:35:20;;;;;;;5.70;2.50;;;13.90;90.00;;;;;;5076483;28;20078;-89
2022/08/10 01:38:08;;;;;;;3.13;2.50;;;13.90;90.40;;;;;;5082428;28;20420;-90
2022/08/10 01:40:42;;;;;;;4.22;2.38;;;13.80;90.50;;;;;;5064238;28;20091;-90
2022/08/10 01:43:11;;;;;;;3.03;2.53;;;13.70;91.10;;;;;;5069497;28;20028;-88
2022/08/10 01:45:41;;;;;;;3.38;2.58;;;13.70;91.30;;;;;;5078125;28;20035;-90
2022/08/10 01:48:29;;;;;;;8.05;3.03;;;13.70;91.70;;;;;;5090602;28;20032;-89
2022/08/10 01:51:10;;;;;;;4.32;3.20;;;13.60;92.00;;;;;;5086423;28;20032;-90
2022/08/10 01:54:00;;;;;;;5.63;2.80;;;13.60;92.00;;;;;;5082301;28;20115;-90
2022/08/10 01:56:29;;;;;;;3.45;2.60;;;13.50;91.80;;;;;;5087835;28;20032;-90
2022/08/10 01:59:06;;;;;;;5.00;3.20;;;13.50;91.80;;;;;;5069608;28;20032;-90
2022/08/10 02:01:37;;;;;;;7.72;3.10;;;13.50;91.40;;;;;;5083175;28;20028;-90
2022/08/10 02:04:08;;;;;;;5.10;2.83;;;13.50;92.30;;;;;;5084241;28;20035;-90
2022/08/10 02:06:52;;;;;;;6.95;3.28;;;13.50;92.30;;;;;;5072924;28;20020;-90
2022/08/10 02:09:27;;;;;;;3.30;2.45;;;13.50;92.30;;;;;;5082097;28;20044;-89
2022/08/10 02:11:56;;;;;;;3.55;2.58;;;13.40;92.50;;;;;;5086903;28;20106;-90
2022/08/10 02:14:24;;;;;;;3.30;3.00;;;13.40;92.50;;;;;;5075080;28;20135;-89
2022/08/10 02:16:52;;;;;;;2.85;2.55;;;13.30;92.70;;;;;;5098360;28;20122;-90
2022/08/10 02:19:20;;;;;;;4.03;3.13;;;13.30;93.10;;;;;;5091646;28;20035;-90
2022/08/10 02:21:48;;;;;;;6.78;3.28;;;13.30;94.10;;;;;;5082604;28;20058;-90
2022/08/10 02:24:15;;;;;;;4.13;2.97;;;13.20;95.00;;;;;;5085630;28;20408;-90
2022/08/10 02:26:43;;;;;;;3.25;2.95;;;13.10;95.40;;;;;;5075274;28;20492;-90
2022/08/10 02:29:14;;;;;;;3.72;3.42;;;13.00;95.80;;;;;;5071683;28;20032;-89
2022/08/10 02:31:41;;;;;;;6.75;3.40;;;12.90;96.20;;;;;;5084074;28;20020;-90
2022/08/10 02:34:12;;;;;;;4.10;2.55;;;12.80;96.70;;;;;;5080067;28;20016;-90
2022/08/10 02:36:43;;;;;;;3.38;3.05;;;12.70;97.30;;;;;;5092685;28;20043;-90
2022/08/10 02:39:10;;;;;;;;;;;12.60;98.50;;;;;;5091199;28;20028;-89
2022/08/10 02:41:40;;;;;;;6.35;3.33;;;12.60;99.50;;;;;;5072815;28;19915;-90
2022/08/10 02:44:16;;;;;;;4.53;3.70;;;12.50;99.90;;;;;;5088253;28;20052;-89
2022/08/10 02:46:49;;;;;;;3.97;3.33;;;12.50;99.90;;;;;;5070886;28;20016;-90
2022/08/10 02:49:24;;;;;;;4.30;3.90;;;12.50;99.90;;;;;;5085863;28;20145;-90
2022/08/10 02:51:57;;;;;;;3.58;3.25;;;12.40;99.90;;;;;;5094027;28;20500;-89
2022/08/10 02:54:30;;;;;;;5.25;3.38;;;12.40;99.90;;;;;;5094581;28;20024;-89
2022/08/10 02:57:09;;;;;;;3.75;3.38;;;12.40;99.90;;;;;;5086975;28;20029;-90
2022/08/10 02:59:43;;;;;;;3.72;3.47;;;12.40;99.90;;;;;;5072309;28;20066;-90
2022/08/10 03:02:14;;;;;;;9.57;4.00;;;12.40;99.90;;;;;;5092072;28;20054;-90
2022/08/10 03:04:45;;;;;;;3.95;3.65;;;12.40;99.90;;;;;;5092502;28;20029;-88
2022/08/10 03:07:13;;;;;;;3.80;3.50;;;12.40;99.90;;;;;;5080605;28;20051;-90
2022/08/10 03:09:40;;;;;;;3.85;3.63;;;12.30;99.90;;;;;;5074194;28;20383;-89
2022/08/10 03:12:09;;;;;;;3.80;3.50;;;12.30;99.90;;;;;;5093208;28;20399;-90
2022/08/10 03:14:37;;;;;;;3.72;3.35;;;12.20;99.90;;;;;;5086578;28;20036;-89
2022/08/10 03:17:03;;;;;;;4.88;4.03;;;12.20;99.90;;;;;;5075326;28;20174;-91
2022/08/10 03:19:31;;;;;;;3.92;3.63;;;12.20;99.90;;;;;;5074505;28;20131;-90
2022/08/10 03:21:58;;;;;;;4.07;3.72;;;12.20;99.90;;;;;;5089272;28;20036;-90
2022/08/10 03:24:26;;;;;;;6.80;3.50;;;12.20;99.90;;;;;;5079960;28;20392;-89
2022/08/10 03:26:54;;;;;;;6.78;3.97;;;12.20;99.90;;;;;;5083256;28;20115;-93
2022/08/10 03:29:21;;;;;;;14.50;4.63;;;12.20;99.90;;;;;;5081966;28;20028;-90
2022/08/10 03:31:47;;;;;;;5.07;4.68;;;12.10;99.90;;;;;;5088774;28;20534;-90
2022/08/10 03:34:15;;;;;;;5.88;4.15;;;12.00;99.90;;;;;;5089047;28;20031;-90
2022/08/10 03:36:41;;;;;;;5.82;4.90;;;11.90;99.90;;;;;;5088200;28;20021;-89
2022/08/10 03:39:07;;;;;;;4.32;4.03;;;11.90;99.90;;;;;;5078902;28;20538;-90
2022/08/10 03:41:48;;;;;;;4.88;4.45;;;11.80;99.90;;;;;;5092996;28;20056;-90
2022/08/10 03:44:19;;;;;;;7.05;4.10;;;11.70;99.90;;;;;;5079354;28;20027;-90
2022/08/10 03:46:47;;;;;;;5.38;4.55;;;11.60;99.90;;;;;;5093033;28;20422;-90
2022/08/10 03:49:13;;;;;;;5.43;5.03;;;11.50;99.90;;;;;;5084330;28;20026;-90
2022/08/10 03:51:40;;;;;;;5.25;4.85;;;11.40;99.90;;;;;;5075771;28;20112;-91
2022/08/10 03:54:07;;;;;;;4.78;4.40;;;11.40;99.90;;;;;;5091854;28;20032;-91
2022/08/10 03:56:37;;;;;;;6.60;6.03;;;11.40;99.90;;;;;;5074886;28;20030;-91
2022/08/10 03:59:08;;;;;;;11.52;5.47;;;11.40;99.90;;;;;;5085615;28;20033;-90
2022/08/10 04:01:35;;;;;;;5.03;4.53;;;11.30;99.90;;;;;;5093380;28;20106;-90
2022/08/10 04:04:01;;;;;;;5.78;5.20;;;11.30;99.90;;;;;;5089825;28;20029;-90
2022/08/10 04:06:26;;;;;;;5.10;4.60;;;11.30;99.90;;;;;;5074820;28;20040;-90
2022/08/10 04:08:52;;;;;;;5.13;4.72;;;11.30;99.90;;;;;;5068669;28;20028;-91
2022/08/10 04:11:18;;;;;;;5.95;5.03;;;11.20;99.90;;;;;;5082603;28;20033;-91
2022/08/10 04:13:43;;;;;;;6.47;4.97;;;11.20;99.90;;;;;;5082694;28;20024;-90
2022/08/10 04:16:09;;;;;;;5.60;5.10;;;11.20;99.90;;;;;;5080853;28;20031;-90
2022/08/10 04:18:35;;;;;;;6.32;5.40;;;11.20;99.90;;;;;;5090844;28;20024;-91
2022/08/10 04:21:03;;;;;;;6.00;5.25;;;11.30;99.90;;;;;;5082794;28;20028;-91
2022/08/10 04:23:33;;;;;;;7.32;5.00;;;11.30;99.90;;;;;;5090973;28;20492;-90
2022/08/10 04:25:59;;;;;;;10.10;5.40;;;11.40;99.90;;;;;;5078002;28;20024;-90
2022/08/10 04:28:25;;;;;;;5.25;4.35;;;11.40;99.90;;;;;;5079308;28;20024;-90
2022/08/10 04:30:53;;;;;;;5.35;4.85;;;11.50;99.90;;;;;;5092496;28;20024;-91
2022/08/10 04:33:22;;;;;;;5.57;4.30;;;11.60;99.90;;;;;;5087678;28;20036;-90
2022/08/10 04:35:49;;;;;;;5.43;4.93;;;11.60;99.90;;;;;;5092419;28;20056;-90
2022/08/10 04:38:17;;;;;;;5.18;4.72;;;11.70;99.90;;;;;;5088194;28;20081;-91
2022/08/10 04:40:45;;;;;;;5.93;5.43;;;11.80;99.90;;;;;;5090496;28;20108;-91
2022/08/10 04:43:12;;;;;;;9.55;4.90;;;11.90;99.90;;;;;;5085466;28;20020;-90
2022/08/10 04:45:42;;;;;;;5.25;4.72;;;12.00;99.90;;;;;;5068673;28;20020;-90
2022/08/10 04:48:08;;;;;;;4.72;4.10;;;12.00;99.90;;;;;;5085025;28;20115;-90
2022/08/10 04:50:33;;;;;;;5.80;5.30;;;12.10;99.90;;;;;;5083342;28;20119;-90
2022/08/10 04:52:59;;;;;;;5.28;4.45;;;12.10;99.90;;;;;;5073709;28;20039;-91
2022/08/10 04:55:25;;;;;;;5.60;5.07;;;12.20;99.90;;;;;;5063224;28;20024;-91
2022/08/10 04:57:50;;;;;;;5.15;4.65;;;12.20;99.90;;;;;;5086756;28;20573;-90
2022/08/10 05:00:16;;;;;;;10.80;4.97;;;12.30;99.90;;;;;;5084079;28;20487;-90
2022/08/10 05:02:42;;;;;;;10.25;5.20;;;12.40;99.90;;;;;;5084755;28;20399;-91
2022/08/10 05:05:08;;;;;;;5.35;4.85;;;12.40;99.90;;;;;;5088423;28;20025;-91
2022/08/10 05:07:33;;;;;;;7.45;5.22;;;12.50;99.90;;;;;;5072564;28;20033;-92
2022/08/10 05:09:59;;;;;;;5.70;4.93;;;12.70;99.90;;;;;;5085093;28;20363;-91
2022/08/10 05:12:26;;;;;;;6.78;4.57;;;13.10;99.90;;;;;;5092134;28;20059;-90
2022/08/10 05:14:52;;;;;;;5.00;4.47;;;13.50;99.90;;;;;;5078703;28;20036;-91
2022/08/10 05:17:18;;;;;;;6.82;3.55;;;14.30;99.90;;;;;;5084762;28;20033;-91
2022/08/10 05:19:44;;;;;;;6.93;4.40;;;15.30;99.90;;;;;;5081751;28;20021;-90
2022/08/10 05:22:10;;;;;;;7.07;3.50;;;16.30;99.90;;;;;;5082009;28;20024;-91
2022/08/10 05:24:36;;;;;;;3.42;3.13;;;17.20;94.40;;;;;;5085991;28;20020;-91
2022/08/10 05:27:01;;;;;;;4.75;3.47;;;17.80;90.40;;;;;;5064673;28;20076;-91
2022/08/10 05:29:27;;;;;;;3.50;3.15;;;18.50;86.00;;;;;;5071316;28;20055;-91
2022/08/10 05:31:53;;;;;;;3.30;3.00;;;19.60;81.50;;;;;;5078748;28;20036;-90
2022/08/10 05:34:25;;;;;;;5.40;2.67;;;20.50;77.30;;;;;;5088393;28;20031;-91
2022/08/10 05:36:52;;;;;;;3.50;2.42;;;21.30;74.10;;;;;;5095968;28;20024;-91
2022/08/10 05:39:20;;;;;;;3.38;2.45;;;22.50;68.80;;;;;;5089069;28;20029;-91
2022/08/10 05:41:50;;;;;;;4.72;2.42;;;23.30;64.50;;;;;;5070434;28;20024;-91
2022/08/10 05:44:16;;;;;;;3.37;2.53;;;23.50;60.50;;;;;;5075810;28;20512;-91
2022/08/10 05:46:42;;;;;;;4.03;2.60;;;24.00;60.00;;;;;;5087435;28;20165;-92
2022/08/10 05:49:07;;;;;;;2.97;2.25;;;25.00;56.60;;;;;;5085777;28;20112;-91
2022/08/10 05:51:33;;;;;;;3.88;2.10;;;25.60;54.60;;;;;;5086240;28;20033;-91
2022/08/10 05:54:00;;;;;;;5.10;2.45;;;25.40;54.40;;;;;;5087133;28;20031;-91
2022/08/10 05:56:26;;;;;;;3.70;2.05;;;26.20;53.30;;;;;;5078719;28;20028;-91
2022/08/10 05:58:51;;;;;;;6.47;2.47;;;26.90;52.10;;;;;;5064558;28;20031;-91
2022/08/10 06:01:19;;;;;;;4.20;2.53;;;27.10;51.00;;;;;;5086901;28;20110;-91
2022/08/10 06:03:50;;;;;;;5.13;2.25;;;27.00;51.50;;;;;;5089777;28;20028;-91
2022/08/10 06:06:18;;;;;;;4.57;1.90;;;27.20;50.10;;;;;;5089370;28;20077;-91
2022/08/10 06:08:45;;;;;;;3.00;2.05;;;27.70;49.10;;;;;;5086753;28;20024;-91
2022/08/10 06:11:14;;;;;;;2.92;2.08;;;28.30;48.70;;;;;;5085346;28;20055;-91
2022/08/10 06:16:29;;;;;;;1.88;1.70;;;29.00;47.80;;;;;;5077719;28;20637;-91
2022/08/10 06:18:56;;;;;;;1.90;1.63;;;29.50;46.80;;;;;;5091045;28;20052;-92
2022/08/10 06:21:22;;;;;;;6.82;1.80;;;29.90;45.20;;;;;;5079365;28;20032;-92
2022/08/10 06:23:50;;;;;;;2.35;1.90;;;30.50;44.60;;;;;;5088523;28;20025;-92
2022/08/10 06:26:15;;;;;;;3.80;1.55;;;31.10;42.60;;;;;;5072371;28;20090;-92
2022/08/10 06:28:52;;;;;;;4.20;1.80;;;31.60;42.10;;;;;;5069686;28;20465;-91
2022/08/10 06:31:19;;;;;;;2.20;1.80;;;31.60;41.60;;;;;;5084433;28;20436;-91
2022/08/10 06:33:46;;;;;;;12.70;2.05;;;31.70;42.00;;;;;;5082422;28;20013;-92
2022/08/10 06:36:13;;;;;;;3.40;2.13;;;32.60;41.00;;;;;;5080661;28;20032;-91
2022/08/10 06:38:41;;;;;;;3.38;2.00;;;33.20;40.20;;;;;;5081189;28;20116;-92
2022/08/10 06:41:12;;;;;;;2.15;1.60;;;33.40;39.40;;;;;;5072599;28;20028;-91
2022/08/10 06:43:44;;;;;;;2.80;1.60;;;33.70;38.00;;;;;;5086435;28;20039;-92
2022/08/10 06:46:15;;;;;;;3.10;1.70;;;34.10;37.30;;;;;;5084578;28;20023;-91
2022/08/10 06:48:49;;;;;;;3.95;1.77;;;33.40;37.60;;;;;;5075122;28;20491;-92
2022/08/10 06:51:25;;;;;;;3.63;1.80;;;33.80;37.40;;;;;;5064887;28;20773;-92
2022/08/10 06:53:58;;;;;;;2.03;1.52;;;34.00;37.20;;;;;;5080015;28;20028;-92
2022/08/10 06:56:33;;;;;;;1.63;1.40;;;34.40;37.20;;;;;;5085559;28;20040;-92
2022/08/10 06:59:05;;;;;;;4.35;2.15;;;34.90;36.40;;;;;;5079458;28;20039;-90
2022/08/10 07:01:35;;;;;;;2.47;1.80;;;35.40;36.30;;;;;;5085107;28;20054;-92
2022/08/10 07:04:44;;;;;;;3.97;1.58;;;35.50;36.00;;;;;;5074498;28;20028;-91
2022/08/10 07:07:17;;;;;;;5.97;1.60;;;35.40;36.50;;;;;;5078387;28;20111;-92
2022/08/10 07:09:44;;;;;;;4.82;1.55;;;35.60;35.50;;;;;;5093042;28;20640;-91
2022/08/10 07:12:10;;;;;;;3.90;1.52;;;35.90;35.10;;;;;;5084169;28;20504;-91
2022/08/10 07:14:38;;;;;;;2.85;1.40;;;36.10;34.80;;;;;;5089412;28;20047;-92
2022/08/10 07:17:06;;;;;;;3.53;1.33;;;36.80;34.00;;;;;;5085333;28;20492;-90
2022/08/10 07:19:32;;;;;;;2.53;1.40;;;36.70;35.00;;;;;;5092122;28;20039;-92
2022/08/10 07:21:59;;;;;;;3.22;1.10;;;37.00;35.60;;;;;;5091997;28;20012;-92
2022/08/10 07:24:26;;;;;;;1.92;1.13;;;37.20;33.90;;;;;;5075947;28;20025;-92
2022/08/10 07:26:55;;;;;;;1.95;1.02;;;37.20;34.10;;;;;;5093386;28;20024;-93
2022/08/10 07:29:27;;;;;;;5.53;1.30;;;37.50;33.60;;;;;;5074904;28;20044;-92
2022/08/10 07:31:55;;;;;;;4.82;1.30;;;37.90;33.80;;;;;;5088833;28;20030;-92
2022/08/10 07:34:23;;;;;;;2.17;1.10;;;38.70;32.70;;;;;;5079990;28;20048;-93
2022/08/10 07:36:51;;;;;;;4.88;1.30;;;39.10;32.80;;;;;;5083367;28;20023;-93
2022/08/10 07:39:22;;;;;;;1.95;1.38;;;39.00;32.00;;;;;;5081944;28;20105;-91
2022/08/10 07:41:51;;;;;;;4.55;1.25;;;39.40;31.20;;;;;;5091795;28;20098;-93
2022/08/10 07:44:20;;;;;;;1.85;1.33;;;39.60;30.80;;;;;;5090141;28;20094;-92
2022/08/10 07:46:50;;;;;;;4.43;1.30;;;39.90;31.40;;;;;;5088338;28;20184;-93
2022/08/10 07:49:25;;;;;;;2.47;1.20;;;40.00;30.20;;;;;;5082235;28;20039;-92
2022/08/10 07:51:52;;;;;;;1.95;1.10;;;39.90;30.30;;;;;;5079884;28;20040;-93
2022/08/10 07:54:21;;;;;;;2.42;1.13;;;39.80;30.50;;;;;;5072295;28;20032;-93
2022/08/10 07:56:50;;;;;;;1.58;1.10;;;40.20;29.90;;;;;;5084665;28;20118;-93
2022/08/10 07:59:30;;;;;;;2.80;1.27;;;40.60;29.80;;;;;;5097939;28;20123;-94
2022/08/10 08:01:57;;;;;;;1.90;0.88;;;40.60;29.40;;;;;;5083601;28;20352;-93
2022/08/10 08:04:24;;;;;;;5.68;1.15;;;40.90;29.40;;;;;;5100667;28;20092;-93
2022/08/10 08:06:52;;;;;;;6.10;1.67;;;41.00;29.40;;;;;;5088466;28;20364;-92
2022/08/10 08:09:22;;;;;;;3.63;0.80;;;41.30;29.80;;;;;;5094045;28;20020;-92
2022/08/10 08:11:51;;;;;;;2.53;0.88;;;41.70;29.50;;;;;;5091498;28;20125;-91
2022/08/10 08:14:20;;;;;;;1.23;0.95;;;42.10;29.00;;;;;;5084930;28;20032;-92
2022/08/10 08:16:50;;;;;;;2.00;1.10;;;42.10;29.10;;;;;;5066220;28;20032;-92
2022/08/10 08:19:18;;;;;;;2.13;1.00;;;42.10;29.20;;;;;;5088351;28;20036;-91
2022/08/10 08:21:44;;;;;;;3.13;0.90;;;41.90;29.00;;;;;;5069407;28;20035;-92
2022/08/10 08:24:12;;;;;;;2.05;0.80;;;42.00;29.30;;;;;;5081587;28;20052;-91
2022/08/10 08:26:41;;;;;;;1.75;1.02;;;42.20;28.90;;;;;;5084912;28;20132;-92
2022/08/10 08:29:09;;;;;;;3.03;1.10;;;42.60;29.00;;;;;;5093561;28;20027;-91
2022/08/10 08:31:37;;;;;;;3.70;0.95;;;42.10;29.10;;;;;;5087029;28;20488;-92
2022/08/10 08:34:04;;;;;;;4.03;1.85;;;42.60;28.70;;;;;;5079947;28;20013;-92
2022/08/10 08:36:32;;;;;;;3.75;1.08;;;43.50;28.80;;;;;;5073886;28;20498;-92
2022/08/10 08:38:58;;;;;;;1.98;0.80;;;43.60;27.80;;;;;;5086791;28;20032;-93
2022/08/10 08:41:29;;;;;;;2.60;1.00;;;42.30;27.60;;;;;;5077884;28;20515;-92
2022/08/10 08:44:03;;;;;;;3.20;0.98;;;41.80;28.90;;;;;;5083329;28;20023;-93
2022/08/10 08:46:43;;;;;;;8.60;1.10;;;41.30;28.10;;;;;;5094924;28;20032;-93
2022/08/10 08:49:20;;;;;;;2.83;1.00;;;40.30;28.60;;;;;;5086430;28;20023;-93
2022/08/10 08:52:10;;;;;;;3.35;1.15;;;37.20;30.70;;;;;;5098745;28;20047;-93
2022/08/10 08:54:36;;;;;;;;;;;35.40;33.30;;;;;;5069147;28;20036;-92
2022/08/10 08:57:39;;;;;;;3.00;1.23;;;33.90;33.50;;;;;;5077719;28;19926;-91
2022/08/10 09:00:24;;;;;;;2.88;1.40;;;32.20;33.60;;;;;;5059753;28;20427;-90
2022/08/10 09:03:29;;;;;;;2.50;1.52;;;30.50;36.90;;;;;;5082831;28;20033;-91
2022/08/10 09:06:19;;;;;;;2.00;1.33;;;29.10;39.10;;;;;;5073296;28;20032;-91
2022/08/10 09:09:23;;;;;;;3.50;1.40;;;28.30;41.70;;;;;;5074317;28;20035;-91
2022/08/10 09:12:30;;;;;;;2.67;1.58;;;28.10;41.20;;;;;;5093209;28;20282;-91
2022/08/10 09:15:03;;;;;;;2.58;1.65;;;27.50;41.30;;;;;;5055505;28;20476;-92
2022/08/10 09:17:31;;;;;;;10.48;1.70;;;27.30;42.40;;;;;;5088043;28;20036;-91
2022/08/10 09:20:26;;;;;;;2.58;1.50;;;27.10;42.10;;;;;;5091121;28;20073;-91
2022/08/10 09:22:58;;;;;;;4.72;1.70;;;26.80;42.10;;;;;;5053496;28;20074;-90
2022/08/10 09:25:31;;;;;;;1.90;1.38;;;27.10;42.40;;;;;;5090051;28;20095;-91
2022/08/10 09:28:08;;;;;;;3.72;1.60;;;27.30;42.00;;;;;;5079278;28;20062;-92
2022/08/10 09:30:43;;;;;;;2.10;1.27;;;28.60;41.40;;;;;;5085191;28;20375;-91
2022/08/10 09:33:17;;;;;;;1.73;1.20;;;30.10;39.00;;;;;;5096982;28;20059;-92
2022/08/10 09:35:56;;;;;;;1.42;0.95;;;31.20;36.80;;;;;;5064042;28;20456;-93
2022/08/10 09:38:41;;;;;;;1.77;1.40;;;31.60;33.30;;;;;;5071895;28;20046;-92
2022/08/10 09:41:35;;;;;;;6.75;1.23;;;32.30;31.10;;;;;;5085774;28;20083;-89
2022/08/10 09:44:26;;;;;;;4.90;1.20;;;33.00;31.90;;;;;;5071220;28;20023;-93
2022/08/10 09:47:31;;;;;;;2.28;1.50;;;31.80;33.10;;;;;;5082171;28;20111;-90
2022/08/10 09:50:23;;;;;;;1.35;1.00;;;31.90;33.60;;;;;;5070710;28;20726;-91
2022/08/10 09:53:06;;;;;;;1.98;1.10;;;32.10;32.70;;;;;;5089048;28;20061;-90
2022/08/10 09:55:41;;;;;;;2.53;1.40;;;32.10;32.20;;;;;;5070590;28;20013;-91
2022/08/10 09:58:20;;;;;;;3.08;1.30;;;31.90;32.80;;;;;;5094062;28;20019;-90
2022/08/10 10:00:59;;;;;;;2.35;1.40;;;31.90;32.90;;;;;;5081791;28;20646;-92
2022/08/10 10:03:40;;;;;;;1.92;1.40;;;31.60;31.80;;;;;;5059725;28;20032;-91
2022/08/10 10:06:16;;;;;;;1.45;1.05;;;31.20;32.30;;;;;;5077801;28;20031;-90
2022/08/10 10:08:54;;;;;;;3.65;1.50;;;31.60;33.10;;;;;;5082833;28;20036;-92
2022/08/10 10:11:35;;;;;;;1.65;1.27;;;31.80;32.90;;;;;;5065620;28;20040;-92
2022/08/10 10:14:19;;;;;;;1.92;1.30;;;31.70;32.90;;;;;;5087878;28;20020;-92
2022/08/10 10:16:55;;;;;;;3.03;1.20;;;31.70;33.10;;;;;;5093054;28;20023;-92
2022/08/10 10:19:48;;;;;;;2.15;1.20;;;32.10;33.00;;;;;;5087185;28;20558;-92
2022/08/10 10:22:34;;;;;;;1.35;1.00;;;32.90;33.50;;;;;;5069838;28;20016;-92
2022/08/10 10:25:08;;;;;;;1.30;1.10;;;32.50;32.40;;;;;;5095055;28;20029;-92
2022/08/10 10:27:52;;;;;;;2.88;1.20;;;33.40;32.10;;;;;;5074832;28;20044;-91
2022/08/10 10:30:21;;;;;;;6.97;1.20;;;33.00;31.60;;;;;;5064969;28;20032;-91
2022/08/10 10:33:02;;;;;;;2.45;1.20;;;33.00;32.20;;;;;;5086828;28;20031;-91
2022/08/10 10:35:40;;;;;;;3.20;1.38;;;32.30;32.90;;;;;;5091144;28;20086;-91
2022/08/10 10:38:08;;;;;;;2.13;1.10;;;32.30;33.40;;;;;;5090896;28;20024;-93
2022/08/10 10:40:46;;;;;;;7.63;1.83;;;31.60;34.30;;;;;;5067046;28;20036;-91
2022/08/10 10:43:36;;;;;;;2.63;1.40;;;31.50;36.80;;;;;;5075569;28;20016;-93
2022/08/10 10:46:13;;;;;;;1.67;1.50;;;31.60;37.00;;;;;;5078381;28;20027;-92
2022/08/10 10:48:48;;;;;;;2.95;1.10;;;31.90;36.60;;;;;;5077195;28;20016;-91
2022/08/10 10:51:29;;;;;;;2.83;1.30;;;32.20;35.90;;;;;;5098325;28;20016;-91
2022/08/10 10:54:06;;;;;;;1.90;1.20;;;32.50;35.80;;;;;;5082585;28;20023;-91
2022/08/10 10:56:50;;;;;;;3.67;1.27;;;32.10;36.30;;;;;;5093606;28;20502;-91
2022/08/10 10:59:32;;;;;;;3.95;1.40;;;31.90;37.10;;;;;;5060980;28;20040;-91
2022/08/10 11:02:17;;;;;;;2.75;1.73;;;31.30;38.20;;;;;;5091175;28;20061;-91
2022/08/10 11:04:48;;;;;;;3.97;1.50;;;31.40;37.80;;;;;;5088988;28;20027;-91
2022/08/10 11:07:23;;;;;;;4.15;1.50;;;32.00;37.10;;;;;;5091744;28;20020;-92
2022/08/10 11:09:55;;;;;;;3.17;1.35;;;32.90;36.20;;;;;;5095142;28;20008;-91
2022/08/10 11:12:43;;;;;;;4.68;1.30;;;33.50;35.70;;;;;;5087886;28;20031;-93
2022/08/10 11:15:35;;;;;;;2.70;1.23;;;33.60;33.20;;;;;;5089040;28;20111;-91
2022/08/10 11:18:18;;;;;;;2.97;1.70;;;33.90;34.40;;;;;;5075254;28;20032;-92
2022/08/10 11:21:05;;;;;;;3.25;1.40;;;33.10;33.80;;;;;;5084541;28;20047;-91
2022/08/10 11:23:44;;;;;;;3.47;1.73;;;32.70;35.70;;;;;;5084890;28;20032;-91
2022/08/10 11:26:24;;;;;;;3.70;1.40;;;33.10;34.80;;;;;;5063385;28;20066;-89
2022/08/10 11:29:01;;;;;;;2.03;1.30;;;33.40;35.20;;;;;;5087878;28;20024;-91
2022/08/10 11:31:47;;;;;;;2.75;1.40;;;33.70;34.40;;;;;;5069602;28;20028;-92
2022/08/10 11:34:35;;;;;;;3.65;1.48;;;33.60;33.20;;;;;;5084988;28;20440;-91
2022/08/10 11:37:30;;;;;;;2.17;1.50;;;32.30;35.30;;;;;;5097391;28;20023;-90
2022/08/10 11:40:08;;;;;;;2.55;1.30;;;32.70;35.00;;;;;;5093577;28;20035;-92
2022/08/10 11:42:51;;;;;;;1.88;1.10;;;32.80;34.70;;;;;;5089390;28;20032;-90
2022/08/10 11:45:27;;;;;;;4.50;1.40;;;33.30;34.40;;;;;;5081664;28;20032;-91
2022/08/10 11:48:01;;;;;;;3.63;1.45;;;33.80;34.50;;;;;;5086081;28;20035;-91
2022/08/10 11:50:35;;;;;;;3.22;1.40;;;34.30;33.40;;;;;;5090162;28;20055;-91
2022/08/10 11:53:19;;;;;;;3.47;1.45;;;34.20;32.60;;;;;;5090272;28;20071;-91
2022/08/10 11:55:53;;;;;;;12.73;1.73;;;34.30;32.50;;;;;;5091151;28;20108;-91
2022/08/10 12:01:09;;;;;;;1.52;1.20;;;34.20;32.90;;;;;;5088913;28;20545;-90
2022/08/10 12:03:37;;;;;;;2.15;1.50;;;34.70;33.00;;;;;;5089582;28;20128;-91
2022/08/10 12:06:08;;;;;;;2.00;1.10;;;34.90;32.40;;;;;;5076486;28;20039;-92
2022/08/10 12:08:35;;;;;;;3.20;1.58;;;34.80;30.80;;;;;;5074669;28;20101;-90
2022/08/10 12:11:01;;;;;;;4.53;1.75;;;34.50;32.80;;;;;;5088006;28;20058;-92
2022/08/10 12:13:51;;;;;;;4.65;1.50;;;33.90;31.70;;;;;;5074810;28;20028;-92
2022/08/10 12:16:22;;;;;;;7.22;1.77;;;33.30;33.10;;;;;;5068743;28;20024;-92
2022/08/10 12:19:01;;;;;;;2.42;1.10;;;32.80;34.00;;;;;;5057819;28;20029;-91
2022/08/10 12:21:44;;;;;;;6.25;1.40;;;32.50;34.20;;;;;;5083572;28;20024;-90
2022/08/10 12:24:22;;;;;;;2.55;1.50;;;31.90;34.70;;;;;;5092888;28;20028;-92
2022/08/10 12:26:50;;;;;;;3.15;1.70;;;31.60;36.60;;;;;;5081904;28;20079;-91
2022/08/10 12:29:32;;;;;;;3.90;1.30;;;31.30;34.80;;;;;;5091951;28;20094;-90
2022/08/10 12:32:19;;;;;;;2.45;1.52;;;30.80;35.80;;;;;;5065412;28;20036;-92
2022/08/10 12:34:54;;;;;;;2.25;1.20;;;30.90;35.10;;;;;;5089333;28;20109;-91
2022/08/10 12:37:28;;;;;;;2.75;1.40;;;31.20;35.10;;;;;;5088255;28;20036;-91
2022/08/10 12:40:19;;;;;;;1.60;1.23;;;31.50;34.80;;;;;;5074948;28;20020;-91
2022/08/10 12:42:51;;;;;;;2.05;1.38;;;31.50;35.20;;;;;;5092980;28;20484;-91
2022/08/10 12:45:41;;;;;;;2.67;1.55;;;31.60;35.30;;;;;;5090128;28;20055;-91
2022/08/10 12:48:36;;;;;;;1.57;1.20;;;32.00;34.50;;;;;;5097449;28;20035;-91
2022/08/10 12:51:29;;;;;;;3.83;1.38;;;31.30;34.50;;;;;;5067029;28;20044;-90
2022/08/10 12:54:11;;;;;;;1.80;1.48;;;29.70;36.90;;;;;;5084972;28;20056;-90
2022/08/10 12:56:42;;;;;;;3.90;1.40;;;29.10;37.30;;;;;;5085380;28;20032;-93
2022/08/10 12:59:12;;;;;;;2.17;1.30;;;28.30;38.40;;;;;;5091791;28;20510;-90
2022/08/10 13:01:38;;;;;;;2.50;1.60;;;28.10;39.60;;;;;;5073098;28;20400;-92
2022/08/10 13:04:08;;;;;;;1.60;1.27;;;28.20;39.70;;;;;;5070258;28;20027;-91
2022/08/10 13:06:40;;;;;;;3.25;1.60;;;28.20;38.80;;;;;;5070854;28;20487;-91
2022/08/10 13:09:09;;;;;;;3.97;1.50;;;28.40;38.70;;;;;;5086575;28;20079;-89
2022/08/10 13:11:48;;;;;;;3.92;1.55;;;28.90;37.90;;;;;;5093140;28;20369;-92
2022/08/10 13:14:27;;;;;;;1.75;1.30;;;29.20;37.20;;;;;;5086888;28;20079;-91
2022/08/10 13:16:56;;;;;;;1.67;1.30;;;29.60;36.70;;;;;;5083770;28;20054;-91
2022/08/10 13:19:26;;;;;;;2.55;1.30;;;29.90;36.70;;;;;;5081550;28;20048;-90
2022/08/10 13:21:54;;;;;;;3.20;1.40;;;29.30;36.60;;;;;;5085353;28;20071;-90
2022/08/10 13:24:32;;;;;;;2.13;1.30;;;29.30;36.90;;;;;;5083001;28;20068;-90